createdAt,value
2018-08-22T00:01:13.928Z,99605.84
2018-08-22T00:03:43.280Z,99607.50
2018-08-22T00:06:15.588Z,99604.80
2018-08-22T00:08:45.920Z,99610.95
2018-08-22T00:11:15.098Z,99615.88
2018-08-22T00:13:44.706Z,99616.69
2018-08-22T00:16:14.142Z,99610.01
2018-08-22T00:18:43.410Z,99610.78
2018-08-22T00:21:12.284Z,99607.52
2018-08-22T00:23:42.350Z,99612.70
2018-08-22T00:26:11.314Z,99608.17
2018-08-22T00:28:40.415Z,99613.66
2018-08-22T00:31:10.671Z,99617.19
2018-08-22T00:33:43.378Z,99620.57
2018-08-22T00:36:12.964Z,99615.43
2018-08-22T00:38:42.563Z,99622.30
2018-08-22T00:41:11.740Z,99626.28
2018-08-22T00:43:41.365Z,99622.14
2018-08-22T00:46:10.777Z,99621.22
2018-08-22T00:48:39.692Z,99619.19
2018-08-22T00:51:08.758Z,99628.17
2018-08-22T00:53:37.698Z,99625.02
2018-08-22T00:56:06.772Z,99623.70
2018-08-22T00:58:36.233Z,99622.97
2018-08-22T01:01:05.242Z,99628.63
2018-08-22T01:03:34.185Z,99632.57
2018-08-22T01:06:03.778Z,99629.04
2018-08-22T01:08:32.941Z,99628.05
2018-08-22T01:11:01.932Z,99635.80
2018-08-22T01:13:31.174Z,99638.22
2018-08-22T01:16:00.102Z,99639.06
2018-08-22T01:18:28.999Z,99639.28
2018-08-22T01:20:57.882Z,99634.76
2018-08-22T01:23:26.873Z,99636.25
2018-08-22T01:25:55.979Z,99633.52
2018-08-22T01:28:25.336Z,99643.41
2018-08-22T01:30:54.282Z,99642.48
2018-08-22T01:33:23.371Z,99635.52
2018-08-22T01:35:52.457Z,99643.48
2018-08-22T01:38:21.382Z,99634.53
2018-08-22T01:40:50.428Z,99632.89
2018-08-22T01:43:19.702Z,99637.91
2018-08-22T01:45:48.656Z,99637.42
2018-08-22T01:48:17.823Z,99637.77
2018-08-22T01:50:46.727Z,99638.35
2018-08-22T01:53:15.620Z,99634.47
2018-08-22T01:55:44.654Z,99622.05
2018-08-22T01:58:14.034Z,99641.38
2018-08-22T02:00:42.871Z,99643.11
2018-08-22T02:03:11.910Z,99638.64
2018-08-22T02:05:41.298Z,99640.06
2018-08-22T02:08:10.299Z,99642.37
2018-08-22T02:10:39.388Z,99640.52
2018-08-22T02:13:08.785Z,99638.73
2018-08-22T02:15:37.697Z,99638.17
2018-08-22T02:18:06.662Z,99648.67
2018-08-22T02:20:35.623Z,99642.37
2018-08-22T02:23:04.629Z,99643.98
2018-08-22T02:25:33.736Z,99647.66
2018-08-22T02:28:03.057Z,99644.48
2018-08-22T02:30:32.038Z,99641.31
2018-08-22T02:33:00.950Z,99646.17
2018-08-22T02:35:29.851Z,99645.05
2018-08-22T02:37:58.702Z,99642.23
2018-08-22T02:40:27.619Z,99644.84
2018-08-22T02:42:56.542Z,99651.08
2018-08-22T02:45:25.533Z,99640.85
2018-08-22T02:47:54.383Z,99641.70
2018-08-22T02:50:23.745Z,99645.26
2018-08-22T02:52:52.686Z,99644.55
2018-08-22T02:55:21.644Z,99642.72
2018-08-22T02:57:51.245Z,99644.30
2018-08-22T03:00:20.180Z,99644.91
2018-08-22T03:02:49.292Z,99647.34
2018-08-22T03:05:18.285Z,99641.84
2018-08-22T03:07:47.237Z,99641.34
2018-08-22T03:10:16.157Z,99645.08
2018-08-22T03:12:45.378Z,99647.90
2018-08-22T03:15:14.386Z,99639.58
2018-08-22T03:17:43.383Z,99646.48
2018-08-22T03:20:12.328Z,99643.95
2018-08-22T03:22:41.411Z,99643.80
2018-08-22T03:25:10.414Z,99647.48
2018-08-22T03:27:39.931Z,99653.97
2018-08-22T03:30:08.882Z,99650.37
2018-08-22T03:32:37.733Z,99649.28
2018-08-22T03:35:07.224Z,99655.94
2018-08-22T03:37:36.060Z,99669.38
2018-08-22T03:40:05.005Z,99666.91
2018-08-22T03:42:33.969Z,99671.14
2018-08-22T03:45:03.031Z,99675.66
2018-08-22T03:47:32.085Z,99682.28
2018-08-22T03:50:01.059Z,99682.58
2018-08-22T03:52:30.003Z,99681.34
2018-08-22T03:54:59.022Z,99675.69
2018-08-22T03:57:28.133Z,99674.03
2018-08-22T03:59:57.132Z,99675.66
2018-08-22T04:02:26.033Z,99676.25
2018-08-22T04:04:54.894Z,99675.82
2018-08-22T04:07:23.857Z,99683.89
2018-08-22T04:09:52.838Z,99682.02
2018-08-22T04:12:22.158Z,99686.83
2018-08-22T04:14:51.164Z,99690.66
2018-08-22T04:17:20.259Z,99692.43
2018-08-22T04:19:49.641Z,99694.28
2018-08-22T04:22:18.511Z,99693.58
2018-08-22T04:24:47.452Z,99691.25
2018-08-22T04:27:16.940Z,99692.29
2018-08-22T04:29:45.880Z,99690.14
2018-08-22T04:32:14.862Z,99699.16
2018-08-22T04:34:44.201Z,99701.17
2018-08-22T04:37:13.184Z,99699.36
2018-08-22T04:39:42.176Z,99704.48
2018-08-22T04:42:11.900Z,99703.37
2018-08-22T04:44:40.950Z,99713.36
2018-08-22T04:47:09.961Z,99705.63
2018-08-22T04:49:39.386Z,99707.61
2018-08-22T04:52:08.276Z,99707.15
2018-08-22T04:54:37.139Z,99711.32
2018-08-22T04:57:06.473Z,99708.63
2018-08-22T04:59:35.408Z,99703.94
2018-08-22T05:02:04.431Z,99710.01
2018-08-22T05:04:33.438Z,99709.09
2018-08-22T05:07:02.459Z,99708.93
2018-08-22T05:09:31.213Z,99712.39
2018-08-22T05:12:00.252Z,99711.19
2018-08-22T05:14:29.361Z,99711.32
2018-08-22T05:16:58.473Z,99714.98
2018-08-22T05:19:27.879Z,99718.93
2018-08-22T05:21:56.780Z,99712.88
2018-08-22T05:24:25.663Z,99707.73
2018-08-22T05:26:55.114Z,99710.09
2018-08-22T05:29:24.008Z,99719.52
2018-08-22T05:31:52.804Z,99716.19
2018-08-22T05:34:22.044Z,99717.19
2018-08-22T05:36:50.925Z,99716.19
2018-08-22T05:39:20.089Z,99716.59
2018-08-22T05:41:49.400Z,99722.33
2018-08-22T05:44:18.380Z,99712.63
2018-08-22T05:46:47.328Z,99710.80
2018-08-22T05:49:16.630Z,99711.78
2018-08-22T05:51:45.613Z,99711.30
2018-08-22T05:54:14.641Z,99712.63
2018-08-22T05:56:43.926Z,99710.36
2018-08-22T05:59:12.870Z,99712.58
2018-08-22T06:01:41.732Z,99708.77
2018-08-22T06:04:10.968Z,99707.42
2018-08-22T06:06:39.985Z,99711.23
2018-08-22T06:09:12.316Z,99705.72
2018-08-22T06:11:42.237Z,99708.59
2018-08-22T06:14:11.686Z,99709.44
2018-08-22T06:16:40.665Z,99706.29
2018-08-22T06:19:09.903Z,99716.25
2018-08-22T06:21:38.882Z,99712.48
2018-08-22T06:24:07.955Z,99712.36
2018-08-22T06:26:37.125Z,99712.87
2018-08-22T06:29:06.081Z,99716.12
2018-08-22T06:31:34.936Z,99717.84
2018-08-22T06:34:03.870Z,99711.84
2018-08-22T06:36:32.804Z,99716.60
2018-08-22T06:39:01.696Z,99715.62
2018-08-22T06:41:30.626Z,99713.28
2018-08-22T06:43:59.585Z,99719.35
2018-08-22T06:46:28.530Z,99722.58
2018-08-22T06:48:57.353Z,99722.57
2018-08-22T06:51:26.664Z,99716.00
2018-08-22T06:53:55.555Z,99725.45
2018-08-22T06:56:24.473Z,99721.94
2018-08-22T06:58:53.728Z,99724.66
2018-08-22T07:01:22.569Z,99720.44
2018-08-22T07:03:51.500Z,99719.94
2018-08-22T07:06:20.369Z,99722.62
2018-08-22T07:08:49.274Z,99717.20
2018-08-22T07:11:18.137Z,99718.05
2018-08-22T07:13:47.203Z,99713.64
2018-08-22T07:16:16.095Z,99719.34
2018-08-22T07:18:45.079Z,99709.83
2018-08-22T07:21:14.340Z,99710.86
2018-08-22T07:23:43.193Z,99711.82
2018-08-22T07:26:12.245Z,99714.66
2018-08-22T07:28:41.344Z,99712.94
2018-08-22T07:37:55.162Z,99709.70
2018-08-22T07:40:24.003Z,99712.14
2018-08-22T07:42:53.169Z,99709.06
2018-08-22T07:45:22.834Z,99704.92
2018-08-22T07:47:51.889Z,99707.84
2018-08-22T07:50:20.905Z,99706.83
2018-08-22T07:53:05.931Z,99703.29
2018-08-22T07:55:38.516Z,99706.13
2018-08-22T07:58:07.882Z,99702.67
2018-08-22T08:00:37.002Z,99696.45
2018-08-22T08:03:06.093Z,99694.06
2018-08-22T08:05:35.804Z,99696.21
2018-08-22T08:08:04.933Z,99696.37
2018-08-22T08:10:34.889Z,99693.38
2018-08-22T08:13:09.515Z,99692.28
2018-08-22T08:15:38.382Z,99691.06
2018-08-22T08:18:07.304Z,99685.62
2018-08-22T08:20:36.569Z,99688.87
2018-08-22T08:23:05.640Z,99689.02
2018-08-22T08:25:34.615Z,99678.80
2018-08-22T08:28:03.441Z,99684.84
2018-08-22T08:30:32.417Z,99684.27
2018-08-22T08:33:01.388Z,99683.83
2018-08-22T08:35:30.533Z,99681.73
2018-08-22T08:37:59.500Z,99674.59
2018-08-22T08:40:28.480Z,99671.02
2018-08-22T08:42:57.410Z,99674.72
2018-08-22T08:45:26.300Z,99672.14
2018-08-22T08:47:55.263Z,99673.50
2018-08-22T08:50:24.385Z,99666.19
2018-08-22T08:52:53.461Z,99662.94
2018-08-22T08:55:22.448Z,99663.02
2018-08-22T08:57:51.819Z,99665.05
2018-08-22T09:00:20.846Z,99667.20
2018-08-22T09:02:49.629Z,99671.55
2018-08-22T09:05:18.675Z,99667.08
2018-08-22T09:07:47.777Z,99668.38
2018-08-22T09:10:16.850Z,99665.37
2018-08-22T09:12:46.081Z,99660.97
2018-08-22T09:15:15.040Z,99656.55
2018-08-22T09:17:44.113Z,99652.39
2018-08-22T09:20:13.219Z,99649.61
2018-08-22T09:22:42.163Z,99641.44
2018-08-22T09:25:11.227Z,99647.30
2018-08-22T09:27:40.720Z,99647.34
2018-08-22T09:30:09.801Z,99647.25
2018-08-22T09:32:38.935Z,99643.11
2018-08-22T09:35:08.144Z,99646.36
2018-08-22T09:37:37.020Z,99641.97
2018-08-22T09:40:06.069Z,99635.67
2018-08-22T09:42:35.594Z,99637.96
2018-08-22T09:45:04.625Z,99640.06
2018-08-22T09:47:33.522Z,99630.75
2018-08-22T09:50:03.002Z,99626.47
2018-08-22T09:52:31.925Z,99629.14
2018-08-22T09:55:02.405Z,99624.48
2018-08-22T09:57:31.993Z,99619.42
2018-08-22T10:00:01.006Z,99622.99
2018-08-22T10:09:17.332Z,99618.66
2018-08-22T10:11:46.313Z,99616.86
2018-08-22T10:14:15.432Z,99604.94
2018-08-22T10:16:44.441Z,99602.98
2018-08-22T10:19:13.448Z,99605.03
2018-08-22T10:21:42.421Z,99597.91
2018-08-22T10:24:11.696Z,99594.19
2018-08-22T10:26:40.717Z,99593.33
2018-08-22T10:29:09.660Z,99587.41
2018-08-22T10:31:39.027Z,99590.55
2018-08-22T10:34:07.814Z,99590.13
2018-08-22T10:36:36.698Z,99588.97
2018-08-22T10:39:08.428Z,99586.64
2018-08-22T10:41:37.667Z,99585.83
2018-08-22T10:44:07.060Z,99577.86
2018-08-22T10:46:36.406Z,99571.08
2018-08-22T10:49:05.359Z,99570.64
2018-08-22T10:51:34.389Z,99565.61
2018-08-22T10:54:03.380Z,99566.67
2018-08-22T10:56:32.682Z,99558.20
2018-08-22T10:59:01.706Z,99559.55
2018-08-22T11:01:31.003Z,99551.30
2018-08-22T11:03:59.970Z,99554.34
2018-08-22T11:06:28.987Z,99552.14
2018-08-22T11:08:58.485Z,99546.02
2018-08-22T11:11:27.549Z,99541.03
2018-08-22T11:13:56.486Z,99542.49
2018-08-22T11:16:25.573Z,99539.84
2018-08-22T11:18:54.652Z,99540.16
2018-08-22T11:21:34.598Z,99530.45
2018-08-22T11:24:14.323Z,99529.72
2018-08-22T11:26:54.116Z,99529.28
2018-08-22T11:29:34.086Z,99523.27
2018-08-22T11:32:13.985Z,99526.44
2018-08-22T11:34:47.918Z,99524.94
2018-08-22T11:37:17.801Z,99517.25
2018-08-22T11:39:48.216Z,99521.42
2018-08-22T11:42:17.248Z,99507.96
2018-08-22T11:44:46.556Z,99502.58
2018-08-22T11:47:15.508Z,99509.88
2018-08-22T11:49:44.574Z,99501.90
2018-08-22T11:52:13.522Z,99511.41
2018-08-22T11:54:42.568Z,99508.66
2018-08-22T11:57:11.605Z,99507.53
2018-08-22T11:59:40.613Z,99501.94
2018-08-22T12:02:10.676Z,99498.35
2018-08-22T12:04:39.645Z,99503.87
2018-08-22T12:07:09.009Z,99496.82
2018-08-22T12:09:37.813Z,99494.98
2018-08-22T12:12:06.770Z,99497.13
2018-08-22T12:14:35.817Z,99497.36
2018-08-22T12:17:04.762Z,99494.09
2018-08-22T12:19:33.640Z,99489.45
2018-08-22T12:22:03.138Z,99486.37
2018-08-22T12:24:32.094Z,99486.53
2018-08-22T12:27:01.193Z,99484.68
2018-08-22T12:29:30.253Z,99485.30
2018-08-22T12:31:59.070Z,99476.31
2018-08-22T12:34:28.095Z,99470.41
2018-08-22T12:36:57.077Z,99468.06
2018-08-22T12:39:26.954Z,99464.36
2018-08-22T12:41:55.951Z,99470.19
2018-08-22T12:44:25.667Z,99464.88
2018-08-22T12:46:54.547Z,99468.64
2018-08-22T12:49:23.537Z,99459.61
2018-08-22T12:51:52.524Z,99460.35
2018-08-22T12:54:21.583Z,99462.58
2018-08-22T12:56:50.340Z,99455.66
2018-08-22T12:59:19.232Z,99458.53
2018-08-22T13:01:48.236Z,99459.02
2018-08-22T13:04:17.244Z,99458.27
2018-08-22T13:06:46.646Z,99447.41
2018-08-22T13:09:15.588Z,99449.41
2018-08-22T13:11:44.642Z,99443.39
2018-08-22T13:14:13.529Z,99443.70
2018-08-22T13:16:42.400Z,99441.88
2018-08-22T13:19:11.291Z,99441.84
2018-08-22T13:21:40.113Z,99445.98
2018-08-22T13:24:09.013Z,99439.95
2018-08-22T13:26:37.960Z,99438.29
2018-08-22T13:29:07.066Z,99442.84
2018-08-22T13:31:36.199Z,99436.02
2018-08-22T13:34:05.188Z,99432.00
2018-08-22T13:36:34.277Z,99428.58
2018-08-22T13:39:08.694Z,99423.77
2018-08-22T13:41:37.832Z,99430.02
2018-08-22T13:44:06.753Z,99422.00
2018-08-22T13:46:35.804Z,99423.33
2018-08-22T13:49:05.064Z,99413.10
2018-08-22T13:51:34.053Z,99419.38
2018-08-22T13:54:03.092Z,99415.41
2018-08-22T13:56:32.318Z,99417.07
2018-08-22T13:59:01.297Z,99421.17
2018-08-22T14:01:30.232Z,99419.42
2018-08-22T14:03:59.284Z,99411.22
2018-08-22T14:06:28.354Z,99406.97
2018-08-22T14:08:57.302Z,99408.95
2018-08-22T14:11:26.692Z,99404.31
2018-08-22T14:13:55.539Z,99405.97
2018-08-22T14:16:24.541Z,99403.70
2018-08-22T14:18:54.453Z,99402.52
2018-08-22T14:21:23.334Z,99400.17
2018-08-22T14:23:52.227Z,99397.05
2018-08-22T14:26:21.102Z,99396.93
2018-08-22T14:28:49.966Z,99394.19
2018-08-22T14:31:18.787Z,99392.36
2018-08-22T14:33:47.802Z,99388.09
2018-08-22T14:36:16.879Z,99392.91
2018-08-22T14:38:45.911Z,99392.94
2018-08-22T14:41:14.955Z,99390.58
2018-08-22T14:43:43.948Z,99388.22
2018-08-22T14:46:12.991Z,99392.42
2018-08-22T14:48:42.244Z,99396.06
2018-08-22T14:51:11.335Z,99396.36
2018-08-22T14:53:40.385Z,99395.16
2018-08-22T14:56:09.503Z,99393.41
2018-08-22T14:58:38.446Z,99387.39
2018-08-22T15:01:07.551Z,99386.02
2018-08-22T15:03:36.485Z,99388.73
2018-08-22T15:06:05.382Z,99385.78
2018-08-22T15:08:34.465Z,99386.10
2018-08-22T15:11:03.501Z,99378.72
2018-08-22T15:13:32.320Z,99382.74
2018-08-22T15:16:01.365Z,99385.20
2018-08-22T15:18:30.475Z,99381.08
2018-08-22T15:20:59.672Z,99383.81
2018-08-22T15:23:28.533Z,99378.06
2018-08-22T15:25:58.082Z,99380.98
2018-08-22T15:28:27.198Z,99379.44
2018-08-22T15:30:56.375Z,99373.00
2018-08-22T15:33:26.154Z,99376.27
2018-08-22T15:35:55.235Z,99381.14
2018-08-22T15:38:24.281Z,99377.34
2018-08-22T15:40:53.738Z,99378.34
2018-08-22T15:43:22.805Z,99374.13
2018-08-22T15:45:51.777Z,99374.77
2018-08-22T15:48:21.113Z,99369.73
2018-08-22T15:50:50.093Z,99369.48
2018-08-22T15:53:20.246Z,99373.20
2018-08-22T15:55:49.293Z,99370.16
2018-08-22T15:58:18.317Z,99376.17
2018-08-22T16:00:52.373Z,99373.27
2018-08-22T16:03:22.170Z,99368.25
2018-08-22T16:05:52.560Z,99367.11
2018-08-22T16:08:22.982Z,99366.58
2018-08-22T16:10:52.586Z,99368.17
2018-08-22T16:13:26.591Z,99367.58
2018-08-22T16:15:56.730Z,99367.58
2018-08-22T16:18:25.493Z,99365.61
2018-08-22T16:20:54.570Z,99373.63
2018-08-22T16:23:27.480Z,99370.23
2018-08-22T16:25:57.197Z,99371.34
2018-08-22T16:28:26.821Z,99369.62
2018-08-22T16:30:58.421Z,99370.59
2018-08-22T16:33:27.437Z,99374.55
2018-08-22T16:35:56.471Z,99375.14
2018-08-22T16:38:25.904Z,99379.93
2018-08-22T16:40:54.937Z,99377.73
2018-08-22T16:43:39.427Z,99384.26
2018-08-22T16:46:10.208Z,99386.30
2018-08-22T16:48:40.305Z,99388.58
2018-08-22T16:51:09.292Z,99390.66
2018-08-22T16:53:38.243Z,99385.69
2018-08-22T16:56:07.602Z,99393.52
2018-08-22T16:58:36.725Z,99391.45
2018-08-22T17:01:05.899Z,99391.95
2018-08-22T17:03:35.315Z,99395.58
2018-08-22T17:06:09.113Z,99397.95
2018-08-22T17:08:38.376Z,99401.97
2018-08-22T17:11:08.176Z,99400.83
2018-08-22T17:13:43.164Z,99404.14
2018-08-22T17:16:11.997Z,99409.00
2018-08-22T17:18:41.133Z,99414.97
2018-08-22T17:21:10.970Z,99416.52
2018-08-22T17:23:40.353Z,99425.12
2018-08-22T17:26:14.087Z,99428.20
2018-08-22T17:28:45.489Z,99435.91
2018-08-22T17:31:15.125Z,99436.97
2018-08-22T17:33:48.399Z,99436.78
2018-08-22T17:36:17.826Z,99441.19
2018-08-22T17:38:48.025Z,99442.11
2018-08-22T17:41:18.695Z,99453.05
2018-08-22T17:43:59.598Z,99457.23
2018-08-22T17:46:31.005Z,99468.98
2018-08-22T17:48:59.945Z,99472.86
2018-08-22T17:51:29.146Z,99468.66
2018-08-22T17:53:58.108Z,99471.84
2018-08-22T17:56:27.678Z,99484.81
2018-08-22T17:58:57.480Z,99482.37
2018-08-22T18:01:26.647Z,99487.09
2018-08-22T18:03:56.832Z,99491.20
2018-08-22T18:06:26.353Z,99502.58
2018-08-22T18:08:55.702Z,99499.33
2018-08-22T18:11:26.285Z,99502.16
2018-08-22T18:13:58.586Z,99511.75
2018-08-22T18:16:27.555Z,99518.48
2018-08-22T18:18:56.669Z,99528.42
2018-08-22T18:21:33.828Z,99533.00
2018-08-22T18:24:03.502Z,99534.56
2018-08-22T18:26:32.864Z,99544.98
2018-08-22T18:29:02.603Z,99543.67
2018-08-22T18:31:31.527Z,99543.31
2018-08-22T18:34:02.974Z,99553.35
2018-08-22T18:36:32.849Z,99549.21
2018-08-22T18:39:13.292Z,99566.87
2018-08-22T18:41:42.158Z,99567.02
2018-08-22T18:44:11.181Z,99567.56
2018-08-22T18:46:40.209Z,99571.42
2018-08-22T18:49:09.082Z,99569.22
2018-08-22T18:51:38.091Z,99578.37
2018-08-22T18:54:07.207Z,99593.69
2018-08-22T18:56:36.121Z,99588.98
2018-08-22T18:59:15.827Z,99592.17
2018-08-22T19:01:44.868Z,99608.33
2018-08-22T19:04:13.735Z,99598.89
2018-08-22T19:06:42.730Z,99609.31
2018-08-22T19:09:11.693Z,99606.31
2018-08-22T19:11:40.793Z,99610.47
2018-08-22T19:14:10.217Z,99620.05
2018-08-22T19:16:39.905Z,99624.19
2018-08-22T19:19:08.839Z,99627.78
2018-08-22T19:21:37.757Z,99631.60
2018-08-22T19:24:07.457Z,99626.37
2018-08-22T19:26:36.251Z,99622.20
2018-08-22T19:29:07.024Z,99632.61
2018-08-22T19:31:38.240Z,99629.73
2018-08-22T19:34:07.356Z,99626.76
2018-08-22T19:36:36.321Z,99631.22
2018-08-22T19:39:06.652Z,99640.04
2018-08-22T19:41:35.516Z,99639.39
2018-08-22T19:44:05.049Z,99631.64
2018-08-22T19:46:34.471Z,99637.97
2018-08-22T19:49:03.364Z,99643.75
2018-08-22T19:51:32.319Z,99644.27
2018-08-22T19:54:04.592Z,99637.21
2018-08-22T19:56:33.752Z,99635.27
2018-08-22T19:59:03.291Z,99636.75
2018-08-22T20:01:34.169Z,99644.63
2018-08-22T20:04:03.195Z,99639.93
2018-08-22T20:06:32.561Z,99638.33
2018-08-22T20:09:02.113Z,99636.72
2018-08-22T20:11:34.141Z,99632.43
2018-08-22T20:14:04.811Z,99636.24
2018-08-22T20:16:33.716Z,99635.23
2018-08-22T20:19:03.967Z,99641.08
2018-08-22T20:21:40.493Z,99638.72
2018-08-22T20:24:11.139Z,99631.23
2018-08-22T20:26:49.008Z,99635.01
2018-08-22T20:29:18.166Z,99630.02
2018-08-22T20:31:47.186Z,99633.14
2018-08-22T20:34:17.200Z,99632.53
2018-08-22T20:36:48.948Z,99627.81
2018-08-22T20:39:17.988Z,99627.97
2018-08-22T20:41:47.117Z,99632.25
2018-08-22T20:44:18.214Z,99636.68
2018-08-22T20:46:48.202Z,99642.13
2018-08-22T20:49:19.278Z,99640.95
2018-08-22T20:51:48.639Z,99638.09
2018-08-22T20:54:21.539Z,99649.63
2018-08-22T20:56:56.754Z,99649.34
2018-08-22T20:59:25.827Z,99651.00
2018-08-22T21:02:00.026Z,99654.59
2018-08-22T21:04:29.069Z,99650.03
2018-08-22T21:06:58.077Z,99651.39
2018-08-22T21:09:27.227Z,99649.37
2018-08-22T21:11:58.239Z,99648.38
2018-08-22T21:14:28.652Z,99652.25
2018-08-22T21:16:57.557Z,99652.45
2018-08-22T21:19:26.547Z,99655.51
2018-08-22T21:21:55.489Z,99654.47
2018-08-22T21:24:25.253Z,99664.83
2018-08-22T21:26:54.146Z,99664.97
2018-08-22T21:29:23.063Z,99669.55
2018-08-22T21:31:52.059Z,99669.03
2018-08-22T21:34:21.091Z,99662.11
2018-08-22T21:36:50.061Z,99671.27
2018-08-22T21:39:24.789Z,99667.39
2018-08-22T21:41:54.462Z,99663.16
2018-08-22T21:44:24.190Z,99659.45
2018-08-22T21:47:00.424Z,99668.91
2018-08-22T21:49:29.805Z,99660.31
2018-08-22T21:52:01.679Z,99663.34
2018-08-22T21:54:30.682Z,99667.03
2018-08-22T21:56:59.658Z,99661.64
2018-08-22T21:59:28.655Z,99669.75
2018-08-22T22:02:02.845Z,99665.69
2018-08-22T22:04:34.766Z,99663.15
2018-08-22T22:07:04.950Z,99659.59
2018-08-22T22:09:34.522Z,99660.61
2018-08-22T22:12:04.049Z,99655.05
2018-08-22T22:14:36.715Z,99664.16
2018-08-22T22:17:06.381Z,99672.75
2018-08-22T22:19:36.289Z,99667.86
2018-08-22T22:22:05.952Z,99664.66
2018-08-22T22:24:41.403Z,99663.14
2018-08-22T22:27:10.903Z,99661.26
2018-08-22T22:29:39.795Z,99658.57
2018-08-22T22:32:12.630Z,99662.78
2018-08-22T22:34:41.773Z,99663.13
2018-08-22T22:37:17.387Z,99665.98
2018-08-22T22:39:46.990Z,99668.92
2018-08-22T22:42:28.162Z,99665.38
2018-08-22T22:44:58.440Z,99668.38
2018-08-22T22:47:31.564Z,99667.00
2018-08-22T22:50:01.200Z,99667.20
2018-08-22T22:52:40.084Z,99665.19
2018-08-22T22:55:10.012Z,99663.16
2018-08-22T22:57:40.303Z,99657.93
2018-08-22T23:00:13.245Z,99659.78
2018-08-22T23:02:42.393Z,99663.12
2018-08-22T23:05:11.433Z,99665.78
2018-08-22T23:07:41.333Z,99666.28
2018-08-22T23:10:12.751Z,99667.65
2018-08-22T23:12:45.674Z,99666.81
2018-08-22T23:15:17.429Z,99667.36
2018-08-22T23:17:47.906Z,99672.03
2018-08-22T23:20:27.804Z,99671.52
2018-08-22T23:22:57.808Z,99673.79
2018-08-22T23:25:27.079Z,99677.16
2018-08-22T23:27:56.114Z,99671.69
2018-08-22T23:30:30.073Z,99671.35
2018-08-22T23:32:59.095Z,99676.02
2018-08-22T23:35:33.528Z,99676.66
2018-08-22T23:38:07.696Z,99677.80
2018-08-22T23:40:37.967Z,99668.67
2018-08-22T23:43:06.870Z,99669.78
2018-08-22T23:45:37.639Z,99663.20
2018-08-22T23:48:06.988Z,99669.86
2018-08-22T23:50:45.577Z,99666.69
2018-08-22T23:53:14.497Z,99672.67
2018-08-22T23:55:43.328Z,99670.43
2018-08-22T23:58:12.629Z,99669.69
